^^
Saratoga-Weather Station Historical Data
Daily Summary for February 28, 2021 Units:  English    Metric   Both
Daily Weekly Monthly Yearly Custom
  High: Low: Average:
Temperature: 68.7 °F 44.1 °F 56.8 °F
Dew Point: 50.4 °F 42.1 °F 46.9 °F
Humidity: 95% 49% 71%
Wind Speed: 8.1mph 0mph 1.2mph
Wind Gust: 11mph - -
Wind- - ESE
Pressure: 30.2 in 30.1 in -
Precipitation: 0 in    
Historical Graphs
 
 
Tabular Data for February 28, 2021
Time Temperature Dew Point Pressure Wind Wind Speed Wind Gust Humidity Rainfall Rate (Hourly) solar
00:03 52.7 °F 48.4 °F 30.2 in West 2 mph 4 mph 85% 0 in 0 W/m2
00:08 52.9 °F 48.2 °F 30.2 in WNW 0.9 mph 2 mph 84% 0 in 0 W/m2
00:13 52.7 °F 48 °F 30.2 in Calm     84% 0 in 0 W/m2
00:18 52.5 °F 47.8 °F 30.2 in Calm     84% 0 in 0 W/m2
00:23 52.3 °F 47.7 °F 30.2 in Calm   2 mph 84% 0 in 0 W/m2
00:28 52.2 °F 47.8 °F 30.2 in ENE 0.9 mph 3 mph 85% 0 in 0 W/m2
00:33 52.2 °F 47.8 °F 30.2 in Calm   1 mph 85% 0 in 0 W/m2
00:38 52.2 °F 47.8 °F 30.2 in SSW 0.9 mph 2 mph 85% 0 in 0 W/m2
00:43 52.2 °F 47.5 °F 30.2 in NW 0.9 mph 3 mph 84% 0 in 0 W/m2
00:48 52.2 °F 47.5 °F 30.2 in NW 0.9 mph 3 mph 84% 0 in 0 W/m2
00:53 52 °F 47.3 °F 30.2 in WNW 2 mph 4 mph 84% 0 in 0 W/m2
00:58 52 °F 47.3 °F 30.2 in NNE 0.9 mph 2 mph 84% 0 in 0 W/m2
01:03 52 °F 47.3 °F 30.2 in Calm   4 mph 84% 0 in 0 W/m2
01:08 51.8 °F 47.1 °F 30.2 in Calm     84% 0 in 0 W/m2
01:13 51.6 °F 46.9 °F 30.2 in Calm   1 mph 84% 0 in 0 W/m2
01:18 51.3 °F 46.9 °F 30.2 in Calm     85% 0 in 0 W/m2
01:23 51.1 °F 46.8 °F 30.2 in SE 0.9 mph 1 mph 85% 0 in 0 W/m2
01:28 50.7 °F 46.8 °F 30.2 in WSW 0.9 mph 2 mph 86% 0 in 0 W/m2
01:33 50.5 °F 46.8 °F 30.2 in Calm   1 mph 87% 0 in 0 W/m2
01:38 50.4 °F 46.6 °F 30.2 in Calm     87% 0 in 0 W/m2
01:43 50 °F 46.2 °F 30.2 in Calm   1 mph 87% 0 in 0 W/m2
01:48 49.6 °F 45.9 °F 30.2 in East 0.9 mph 2 mph 87% 0 in 0 W/m2
01:53 49.5 °F 46 °F 30.2 in Calm   1 mph 88% 0 in 0 W/m2
01:58 49.3 °F 45.9 °F 30.2 in Calm   1 mph 88% 0 in 0 W/m2
02:03 48.9 °F 45.9 °F 30.2 in Calm   2 mph 89% 0 in 0 W/m2
02:08 48.7 °F 45.7 °F 30.2 in SSE 0.9 mph 1 mph 89% 0 in 0 W/m2
02:13 48.7 °F 45.7 °F 30.2 in Calm     89% 0 in 0 W/m2
02:18 48.7 °F 45.7 °F 30.2 in Calm     89% 0 in 0 W/m2
02:23 48.6 °F 45.5 °F 30.2 in Calm     89% 0 in 0 W/m2
02:28 48.4 °F 45.3 °F 30.2 in Calm   2 mph 89% 0 in 0 W/m2
02:33 48.2 °F 45.3 °F 30.2 in Calm   1 mph 90% 0 in 0 W/m2
02:38 48 °F 45.1 °F 30.2 in Calm   1 mph 90% 0 in 0 W/m2
02:43 47.8 °F 45 °F 30.2 in Calm   1 mph 90% 0 in 0 W/m2
02:48 47.8 °F 45 °F 30.2 in Calm     90% 0 in 0 W/m2
02:53 47.7 °F 45 °F 30.2 in Calm   1 mph 90% 0 in 0 W/m2
02:58 47.5 °F 44.8 °F 30.2 in Calm   1 mph 90% 0 in 0 W/m2
03:03 47.3 °F 44.6 °F 30.2 in Calm     90% 0 in 0 W/m2
03:08 47.1 °F 44.6 °F 30.2 in Calm   1 mph 91% 0 in 0 W/m2
03:13 47.1 °F 44.6 °F 30.2 in Calm     91% 0 in 0 W/m2
03:18 46.9 °F 44.2 °F 30.2 in Calm     90% 0 in 0 W/m2
03:23 46.8 °F 44.2 °F 30.2 in SSE 0.9 mph 2 mph 91% 0 in 0 W/m2
03:28 46.8 °F 44.2 °F 30.2 in SSE 0.9 mph 1 mph 91% 0 in 0 W/m2
03:33 46.6 °F 44.1 °F 30.2 in Calm   1 mph 91% 0 in 0 W/m2
03:38 46.6 °F 44.1 °F 30.2 in Calm     91% 0 in 0 W/m2
03:43 46.2 °F 43.7 °F 30.2 in SSE 0.9 mph 2 mph 91% 0 in 0 W/m2
03:48 46 °F 43.5 °F 30.2 in Calm     91% 0 in 0 W/m2
03:53 46 °F 43.5 °F 30.2 in Calm   1 mph 91% 0 in 0 W/m2
03:58 45.9 °F 43.3 °F 30.2 in Calm     91% 0 in 0 W/m2
04:04 45.9 °F 43.3 °F 30.2 in Calm     91% 0 in 0 W/m2
04:09 45.7 °F 43.5 °F 30.2 in Calm     92% 0 in 0 W/m2
04:14 45.5 °F 43.3 °F 30.2 in Calm     92% 0 in 0 W/m2
04:19 45.3 °F 43.2 °F 30.2 in Calm     92% 0 in 0 W/m2
04:24 45.3 °F 43.2 °F 30.2 in Calm     92% 0 in 0 W/m2
04:29 45.3 °F 43.2 °F 30.2 in Calm     92% 0 in 0 W/m2
04:34 45.3 °F 43.3 °F 30.2 in Calm     93% 0 in 0 W/m2
04:39 45.1 °F 43 °F 30.2 in Calm     92% 0 in 0 W/m2
04:44 45.1 °F 43 °F 30.2 in Calm     92% 0 in 0 W/m2
04:49 45 °F 42.8 °F 30.2 in Calm     92% 0 in 0 W/m2
04:54 45 °F 43 °F 30.2 in Calm     93% 0 in 0 W/m2
04:59 45 °F 43 °F 30.2 in Calm     93% 0 in 0 W/m2
05:04 45 °F 43 °F 30.2 in Calm     93% 0 in 0 W/m2
05:09 45 °F 43 °F 30.2 in Calm     93% 0 in 0 W/m2
05:14 44.8 °F 42.8 °F 30.2 in Calm     93% 0 in 0 W/m2
05:19 44.6 °F 42.6 °F 30.2 in Calm     93% 0 in 0 W/m2
05:24 44.4 °F 42.4 °F 30.2 in Calm     93% 0 in 0 W/m2
05:29 44.2 °F 42.3 °F 30.2 in Calm     93% 0 in 0 W/m2
05:34 44.2 °F 42.3 °F 30.2 in Calm     93% 0 in 0 W/m2
05:39 44.2 °F 42.3 °F 30.2 in Calm     93% 0 in 0 W/m2
05:44 44.2 °F 42.3 °F 30.2 in Calm     93% 0 in 5 W/m2
05:49 44.2 °F 42.3 °F 30.2 in Calm     93% 0 in 7 W/m2
05:54 44.1 °F 42.1 °F 30.2 in Calm     93% 0 in 9 W/m2
05:59 44.1 °F 42.4 °F 30.2 in Calm     94% 0 in 11 W/m2
06:04 44.1 °F 42.4 °F 30.2 in Calm     94% 0 in 11 W/m2
06:09 44.1 °F 42.4 °F 30.2 in Calm     94% 0 in 12 W/m2
06:14 44.1 °F 42.4 °F 30.2 in Calm     94% 0 in 18 W/m2
06:19 44.2 °F 42.6 °F 30.2 in Calm     94% 0 in 19 W/m2
06:24 44.4 °F 42.8 °F 30.2 in Calm     94% 0 in 19 W/m2
06:29 44.4 °F 42.8 °F 30.2 in Calm     94% 0 in 21 W/m2
06:34 44.8 °F 43.2 °F 30.2 in Calm     94% 0 in 25 W/m2
06:39 45 °F 43.3 °F 30.2 in Calm   1 mph 94% 0 in 26 W/m2
06:44 45 °F 43.7 °F 30.2 in Calm   1 mph 95% 0 in 28 W/m2
06:49 45.1 °F 43.5 °F 30.2 in Calm     94% 0 in 30 W/m2
06:54 45.3 °F 43.7 °F 30.2 in ESE 0.9 mph 1 mph 94% 0 in 32 W/m2
06:59 45.7 °F 44.1 °F 30.2 in Calm   1 mph 94% 0 in 33 W/m2
07:04 45.9 °F 44.2 °F 30.2 in Calm   1 mph 94% 0 in 37 W/m2
07:09 46 °F 44.1 °F 30.2 in Calm   1 mph 93% 0 in 40 W/m2
07:14 46.2 °F 44.2 °F 30.2 in NE 2 mph 4 mph 93% 0 in 44 W/m2
07:19 46.6 °F 44.6 °F 30.2 in NE 0.9 mph 2 mph 93% 0 in 47 W/m2
07:24 46.8 °F 44.6 °F 30.2 in Calm   3 mph 92% 0 in 49 W/m2
07:29 46.9 °F 44.8 °F 30.2 in Calm   2 mph 92% 0 in 62 W/m2
07:34 47.1 °F 45 °F 30.2 in Calm   1 mph 92% 0 in 63 W/m2
07:39 47.5 °F 45 °F 30.2 in North 0.9 mph 2 mph 91% 0 in 54 W/m2
07:44 47.7 °F 45 °F 30.2 in Calm   1 mph 90% 0 in 67 W/m2
07:49 47.8 °F 45 °F 30.2 in Calm   2 mph 90% 0 in 174 W/m2
07:54 48.2 °F 45.3 °F 30.2 in Calm   1 mph 90% 0 in 260 W/m2
07:59 48.6 °F 45.5 °F 30.2 in Calm   2 mph 89% 0 in 121 W/m2
08:04 49.3 °F 46.2 °F 30.2 in Calm   2 mph 89% 0 in 113 W/m2
08:09 50.4 °F 46.9 °F 30.2 in NE 0.9 mph 2 mph 88% 0 in 116 W/m2
08:14 51.1 °F 46.8 °F 30.2 in NE 0.9 mph 2 mph 85% 0 in 127 W/m2
08:19 51.4 °F 46.8 °F 30.2 in NNW 2.9 mph 3 mph 84% 0 in 132 W/m2
08:24 51.6 °F 46.2 °F 30.2 in Calm   2 mph 82% 0 in 137 W/m2
08:29 51.8 °F 46.4 °F 30.2 in NNE 0.9 mph 1 mph 82% 0 in 149 W/m2
08:34 51.8 °F 46.4 °F 30.2 in East 0.9 mph 2 mph 82% 0 in 162 W/m2
08:39 52 °F 46.6 °F 30.2 in ENE 2 mph 3 mph 82% 0 in 172 W/m2
08:44 52 °F 46.4 °F 30.2 in East 2 mph 2 mph 81% 0 in 186 W/m2
08:49 52 °F 46.4 °F 30.2 in NE 2 mph 3 mph 81% 0 in 204 W/m2
08:54 52.3 °F 46.8 °F 30.2 in ENE 0.9 mph 3 mph 81% 0 in 220 W/m2
08:59 52.5 °F 46.6 °F 30.2 in East 4 mph 6 mph 80% 0 in 246 W/m2
09:04 52.5 °F 46.2 °F 30.2 in NE 2 mph 5 mph 79% 0 in 330 W/m2
09:09 52.9 °F 46.9 °F 30.2 in East 2.9 mph 4 mph 80% 0 in 287 W/m2
09:14 52.9 °F 46.6 °F 30.2 in ENE 4 mph 4 mph 79% 0 in 299 W/m2
09:19 52.9 °F 46.6 °F 30.2 in ENE 2.9 mph 4 mph 79% 0 in 302 W/m2
09:24 53.1 °F 46.8 °F 30.2 in Calm   3 mph 79% 0 in 297 W/m2
09:29 53.2 °F 47.3 °F 30.2 in ENE 2 mph 3 mph 80% 0 in 353 W/m2
09:34 53.4 °F 47.1 °F 30.2 in ESE 2 mph 3 mph 79% 0 in 348 W/m2
09:39 53.6 °F 47.3 °F 30.2 in WNW 0.9 mph 2 mph 79% 0 in 304 W/m2
09:44 53.8 °F 46.8 °F 30.2 in East 2 mph 6 mph 77% 0 in 279 W/m2
09:49 53.8 °F 46.4 °F 30.2 in NNE 0.9 mph 4 mph 76% 0 in 329 W/m2
09:54 54 °F 46.9 °F 30.2 in SSE 4.9 mph 5 mph 77% 0 in 410 W/m2
09:59 54.1 °F 47.1 °F 30.2 in East 0.9 mph 3 mph 77% 0 in 221 W/m2
10:04 54.3 °F 46.9 °F 30.2 in ENE 2.9 mph 4 mph 76% 0 in 292 W/m2
10:09 54.7 °F 47.3 °F 30.2 in East 2 mph 6 mph 76% 0 in 543 W/m2
10:14 55 °F 46.9 °F 30.2 in ENE 2.9 mph 5 mph 74% 0 in 645 W/m2
10:19 55.6 °F 47.1 °F 30.2 in NE 0.9 mph 3 mph 73% 0 in 554 W/m2
10:24 55.9 °F 47.1 °F 30.2 in East 2 mph 5 mph 72% 0 in 621 W/m2
10:29 55.9 °F 46.8 °F 30.2 in ESE 2.9 mph 7 mph 71% 0 in 176 W/m2
10:34 55.8 °F 46.9 °F 30.2 in North 2 mph 6 mph 72% 0 in 339 W/m2
10:39 55.8 °F 46.9 °F 30.2 in East 2.9 mph 4 mph 72% 0 in 427 W/m2
10:44 55.9 °F 46.2 °F 30.2 in ENE 2.9 mph 7 mph 70% 0 in 733 W/m2
10:49 56.1 °F 46.4 °F 30.2 in SE 2.9 mph 8 mph 70% 0 in 199 W/m2
10:54 56.1 °F 46 °F 30.2 in East 2 mph 4 mph 69% 0 in 206 W/m2
10:59 56.1 °F 46 °F 30.2 in ENE 2.9 mph 3 mph 69% 0 in 149 W/m2
11:04 56.5 °F 46 °F 30.2 in East 2.9 mph 3 mph 68% 0 in 905 W/m2
11:09 57.2 °F 45.5 °F 30.2 in ENE 0.9 mph 4 mph 65% 0 in 789 W/m2
11:14 57.6 °F 45.9 °F 30.2 in NE 0.9 mph 4 mph 65% 0 in 246 W/m2
11:19 57.9 °F 46.2 °F 30.2 in East 2 mph 7 mph 65% 0 in 889 W/m2
11:24 58.5 °F 47.1 °F 30.2 in Calm   4 mph 66% 0 in 766 W/m2
11:29 58.6 °F 46.9 °F 30.2 in NE 0.9 mph 4 mph 65% 0 in 766 W/m2
11:34 58.8 °F 47.1 °F 30.2 in East 6 mph 9 mph 65% 0 in 912 W/m2
11:39 59.4 °F 47.1 °F 30.2 in NW 2.9 mph 7 mph 64% 0 in 900 W/m2
11:44 59.2 °F 46.9 °F 30.2 in ENE 8.1 mph 9 mph 64% 0 in 812 W/m2
11:49 59.2 °F 46.9 °F 30.2 in SSW 2 mph 4 mph 64% 0 in 684 W/m2
11:54 59.2 °F 46.9 °F 30.2 in West 2.9 mph 5 mph 64% 0 in 874 W/m2
11:59 59 °F 47.3 °F 30.2 in ENE 6 mph 6 mph 65% 0 in 197 W/m2
12:04 59.4 °F 47.7 °F 30.2 in ENE 2.9 mph 9 mph 65% 0 in 888 W/m2
12:09 59.7 °F 47.5 °F 30.2 in ENE 0.9 mph 7 mph 64% 0 in 888 W/m2
12:14 60.3 °F 47.7 °F 30.2 in ENE 4 mph 11 mph 63% 0 in 891 W/m2
12:19 60.4 °F 47.8 °F 30.2 in East 4 mph 9 mph 63% 0 in 886 W/m2
12:24 60.6 °F 47.5 °F 30.2 in East 2 mph 7 mph 62% 0 in 888 W/m2
12:29 61 °F 47.5 °F 30.2 in ENE 8.1 mph 11 mph 61% 0 in 884 W/m2
12:34 61 °F 47.5 °F 30.2 in NE 2 mph 9 mph 61% 0 in 900 W/m2
12:39 61.3 °F 47.3 °F 30.2 in NNW 2 mph 4 mph 60% 0 in 904 W/m2
12:44 61.9 °F 47.8 °F 30.2 in NNW 2 mph 9 mph 60% 0 in 914 W/m2
12:49 62.1 °F 48.4 °F 30.2 in ENE 0.9 mph 3 mph 61% 0 in 928 W/m2
12:54 62.4 °F 48.7 °F 30.2 in ENE 0.9 mph 4 mph 61% 0 in 937 W/m2
12:59 62.8 °F 48.7 °F 30.2 in ENE 0.9 mph 6 mph 60% 0 in 951 W/m2
13:04 62.8 °F 48.7 °F 30.2 in Calm   4 mph 60% 0 in 944 W/m2
13:09 62.8 °F 48.2 °F 30.2 in East 2.9 mph 8 mph 59% 0 in 962 W/m2
13:15 62.2 °F 48.6 °F 30.2 in Calm   4 mph 61% 0 in 958 W/m2
13:20 62.8 °F 49.6 °F 30.2 in ESE 6 mph 9 mph 62% 0 in 944 W/m2
13:25 63.1 °F 49.1 °F 30.2 in North 2.9 mph 6 mph 60% 0 in 889 W/m2
13:30 63 °F 48 °F 30.2 in WNW 2 mph 4 mph 58% 0 in 896 W/m2
13:35 63 °F 48.4 °F 30.2 in Calm   5 mph 59% 0 in 914 W/m2
13:40 63.3 °F 49.6 °F 30.2 in East 4 mph 4 mph 61% 0 in 954 W/m2
13:45 63.3 °F 48.7 °F 30.2 in East 2.9 mph 8 mph 59% 0 in 928 W/m2
13:50 63.3 °F 48.4 °F 30.2 in Calm   3 mph 58% 0 in 940 W/m2
13:55 63.1 °F 48.2 °F 30.2 in NNE 2 mph 5 mph 58% 0 in 250 W/m2
14:00 63.7 °F 49.1 °F 30.2 in SE 2 mph 4 mph 59% 0 in 939 W/m2
14:05 63.7 °F 49.1 °F 30.2 in East 4 mph 4 mph 59% 0 in 647 W/m2
14:10 63.9 °F 48.4 °F 30.2 in ESE 2.9 mph 9 mph 57% 0 in 991 W/m2
14:15 64.2 °F 49.6 °F 30.2 in East 2 mph 5 mph 59% 0 in 1035 W/m2
14:20 64.8 °F 48.2 °F 30.2 in North 2.9 mph 7 mph 55% 0 in 925 W/m2
14:25 64.9 °F 48.9 °F 30.2 in NE 2.9 mph 7 mph 56% 0 in 1088 W/m2
14:30 65.1 °F 49.1 °F 30.2 in South 2 mph 5 mph 56% 0 in 1081 W/m2
14:35 65.3 °F 48.7 °F 30.2 in ESE 4 mph 6 mph 55% 0 in 1021 W/m2
14:40 65.8 °F 49.6 °F 30.2 in ESE 2 mph 3 mph 56% 0 in 990 W/m2
14:45 66 °F 48.4 °F 30.2 in ENE 0.9 mph 4 mph 53% 0 in 990 W/m2
14:50 65.8 °F 48.2 °F 30.1 in North 4 mph 11 mph 53% 0 in 452 W/m2
14:55 65.7 °F 48.6 °F 30.2 in ENE 2 mph 6 mph 54% 0 in 304 W/m2
15:00 65.7 °F 49.5 °F 30.2 in ENE 2.9 mph 9 mph 56% 0 in 786 W/m2
15:05 65.7 °F 48.6 °F 30.1 in East 2.9 mph 5 mph 54% 0 in 770 W/m2
15:10 65.8 °F 49.3 °F 30.1 in East 2 mph 7 mph 55% 0 in 726 W/m2
15:15 66 °F 49.5 °F 30.1 in SE 2 mph 4 mph 55% 0 in 844 W/m2
15:20 66.4 °F 49.3 °F 30.1 in ENE 0.9 mph 7 mph 54% 0 in 520 W/m2
15:25 66.4 °F 48.7 °F 30.1 in ESE 2.9 mph 6 mph 53% 0 in 605 W/m2
15:30 66.4 °F 48.7 °F 30.1 in ENE 2 mph 4 mph 53% 0 in 891 W/m2
15:35 66.7 °F 49.6 °F 30.1 in ENE 6 mph 6 mph 54% 0 in 947 W/m2
15:40 67.3 °F 49.6 °F 30.1 in ESE 2 mph 9 mph 53% 0 in 872 W/m2
15:45 67.3 °F 48.6 °F 30.1 in ESE 4 mph 6 mph 51% 0 in 914 W/m2
15:50 67.1 °F 48.9 °F 30.1 in SE 2.9 mph 9 mph 52% 0 in 663 W/m2
15:55 67.1 °F 49.8 °F 30.1 in NNW 2.9 mph 7 mph 54% 0 in 946 W/m2
16:00 67.3 °F 49.1 °F 30.1 in SE 2.9 mph 4 mph 52% 0 in 868 W/m2
16:05 67.5 °F 48.7 °F 30.1 in ESE 2 mph 5 mph 51% 0 in 918 W/m2
16:10 67.5 °F 48.2 °F 30.1 in Calm   5 mph 50% 0 in 800 W/m2
16:15 67.6 °F 49.5 °F 30.1 in ESE 2.9 mph 8 mph 52% 0 in 780 W/m2
16:20 68 °F 49.3 °F 30.1 in ENE 2 mph 8 mph 51% 0 in 837 W/m2
16:25 68.4 °F 48.9 °F 30.1 in NNW 2.9 mph 8 mph 50% 0 in 809 W/m2
16:30 68.2 °F 48.4 °F 30.1 in ENE 0.9 mph 6 mph 49% 0 in 803 W/m2
16:35 67.8 °F 49.6 °F 30.1 in NNE 2.9 mph 4 mph 52% 0 in 807 W/m2
16:40 68.2 °F 50.4 °F 30.1 in East 6.9 mph 7 mph 53% 0 in 851 W/m2
16:45 68.2 °F 48.9 °F 30.1 in ENE 6 mph 6 mph 50% 0 in 854 W/m2
16:50 68.5 °F 49.6 °F 30.1 in ESE 2.9 mph 4 mph 51% 0 in 863 W/m2
16:55 68.2 °F 48.4 °F 30.1 in Calm   1 mph 49% 0 in 188 W/m2
17:00 68 °F 48.7 °F 30.1 in East 2 mph 5 mph 50% 0 in 635 W/m2
17:05 68 °F 49.6 °F 30.1 in East 2.9 mph 4 mph 52% 0 in 691 W/m2
17:10 68.4 °F 49.5 °F 30.1 in ESE 2 mph 4 mph 51% 0 in 782 W/m2
17:16 68.7 °F 49.3 °F 30.1 in SSE 4 mph 7 mph 50% 0 in 793 W/m2
17:21 68.7 °F 48.7 °F 30.1 in East 0.9 mph 5 mph 49% 0 in 371 W/m2
17:26 68.4 °F 48.9 °F 30.1 in SE 2 mph 4 mph 50% 0 in 294 W/m2
17:31 68.2 °F 49.8 °F 30.1 in ESE 4 mph 4 mph 52% 0 in 515 W/m2
17:36 68 °F 48.2 °F 30.1 in NE 0.9 mph 2 mph 49% 0 in 287 W/m2
17:41 68 °F 49.3 °F 30.1 in ENE 0.9 mph 2 mph 51% 0 in 640 W/m2
17:46 67.8 °F 48.6 °F 30.1 in Calm   2 mph 50% 0 in 269 W/m2
17:51 67.6 °F 48.9 °F 30.1 in ENE 2 mph 4 mph 51% 0 in 272 W/m2
17:56 67.5 °F 49.3 °F 30.1 in South 0.9 mph 9 mph 52% 0 in 211 W/m2
18:01 67.1 °F 48.9 °F 30.1 in NE 2 mph 4 mph 52% 0 in 250 W/m2
18:06 66.9 °F 48.7 °F 30.1 in Calm   9 mph 52% 0 in 287 W/m2
18:11 66.9 °F 48.7 °F 30.1 in East 2.9 mph 6 mph 52% 0 in 294 W/m2
18:16 66.9 °F 49.3 °F 30.1 in Calm   3 mph 53% 0 in 257 W/m2
18:21 66.9 °F 48.2 °F 30.1 in NE 2.9 mph 6 mph 51% 0 in 241 W/m2
18:26 67.5 °F 49.3 °F 30.1 in ESE 0.9 mph 3 mph 52% 0 in 445 W/m2
18:31 67.8 °F 48.6 °F 30.1 in East 2 mph 5 mph 50% 0 in 345 W/m2
18:36 67.6 °F 48.9 °F 30.1 in ENE 2.9 mph 3 mph 51% 0 in 167 W/m2
18:41 67.3 °F 48 °F 30.1 in East 0.9 mph 3 mph 50% 0 in 158 W/m2
18:46 66.7 °F 48 °F 30.1 in ENE 2 mph 5 mph 51% 0 in 160 W/m2
18:51 66.6 °F 48.9 °F 30.1 in East 0.9 mph 4 mph 53% 0 in 197 W/m2
18:56 66.6 °F 48.4 °F 30.1 in East 2 mph 2 mph 52% 0 in 236 W/m2
19:01 66.7 °F 48 °F 30.1 in ENE 2.9 mph 6 mph 51% 0 in 165 W/m2
19:06 66.7 °F 48.6 °F 30.1 in ENE 0.9 mph 2 mph 52% 0 in 144 W/m2
19:11 66.6 °F 47.8 °F 30.1 in NE 2 mph 6 mph 51% 0 in 144 W/m2
19:16 66.4 °F 48.2 °F 30.1 in ESE 0.9 mph 2 mph 52% 0 in 267 W/m2
19:21 66.4 °F 48.2 °F 30.1 in East 2 mph 6 mph 52% 0 in 227 W/m2
19:26 66.6 °F 47.3 °F 30.1 in ESE 4 mph 9 mph 50% 0 in 255 W/m2
19:31 66.4 °F 48.2 °F 30.1 in ESE 0.9 mph 2 mph 52% 0 in 134 W/m2
19:36 66.2 °F 48 °F 30.1 in East 0.9 mph 9 mph 52% 0 in 98 W/m2
19:41 65.8 °F 47.1 °F 30.1 in East 2 mph 7 mph 51% 0 in 84 W/m2
19:46 65.7 °F 48 °F 30.1 in NNE 4.9 mph 5 mph 53% 0 in 90 W/m2
19:51 65.5 °F 47.8 °F 30.1 in East 0.9 mph 7 mph 53% 0 in 84 W/m2
19:56 65.3 °F 47.7 °F 30.1 in NNE 2 mph 6 mph 53% 0 in 77 W/m2
20:01 65.1 °F 47.5 °F 30.1 in ESE 2 mph 3 mph 53% 0 in 74 W/m2
20:06 64.9 °F 47.8 °F 30.1 in East 2 mph 4 mph 54% 0 in 70 W/m2
20:11 64.8 °F 48.7 °F 30.1 in Calm   2 mph 56% 0 in 67 W/m2
20:16 64.6 °F 48 °F 30.1 in ESE 2 mph 2 mph 55% 0 in 63 W/m2
20:21 64.2 °F 47.3 °F 30.1 in Calm   7 mph 54% 0 in 51 W/m2
20:26 64 °F 48 °F 30.1 in Calm   3 mph 56% 0 in 42 W/m2
20:31 63.9 °F 47.8 °F 30.1 in ESE 2 mph 7 mph 56% 0 in 39 W/m2
20:36 63.5 °F 48 °F 30.1 in Calm   1 mph 57% 0 in 33 W/m2
20:41 63.3 °F 46.9 °F 30.1 in ESE 2.9 mph 8 mph 55% 0 in 30 W/m2
20:46 63.1 °F 47.1 °F 30.1 in ENE 2.9 mph 9 mph 56% 0 in 26 W/m2
20:51 63 °F 46.9 °F 30.1 in East 0.9 mph 3 mph 56% 0 in 26 W/m2
20:56 62.8 °F 46.9 °F 30.1 in Calm   8 mph 56% 0 in 25 W/m2
21:01 62.6 °F 47.7 °F 30.1 in SE 0.9 mph 1 mph 58% 0 in 18 W/m2
21:06 62.4 °F 47.8 °F 30.1 in Calm   3 mph 59% 0 in 14 W/m2
21:11 62.1 °F 47.5 °F 30.1 in Calm   1 mph 59% 0 in 9 W/m2
21:17 61.9 °F 48.2 °F 30.1 in Calm   2 mph 61% 0 in 5 W/m2
21:22 61.5 °F 48.7 °F 30.1 in Calm     63% 0 in 0 W/m2
21:27 61.2 °F 48.9 °F 30.1 in Calm   2 mph 64% 0 in 0 W/m2
21:32 61 °F 48.7 °F 30.1 in Calm   1 mph 64% 0 in 0 W/m2
21:37 60.4 °F 48.2 °F 30.1 in Calm     64% 0 in 0 W/m2
21:42 60.3 °F 48.4 °F 30.1 in Calm     65% 0 in 0 W/m2
21:47 60.1 °F 48.7 °F 30.1 in Calm     66% 0 in 0 W/m2
21:52 59.7 °F 48.7 °F 30.1 in Calm   1 mph 67% 0 in 0 W/m2
21:57 59.5 °F 48.9 °F 30.1 in Calm     68% 0 in 0 W/m2
22:02 59.4 °F 48.7 °F 30.1 in Calm   1 mph 68% 0 in 0 W/m2
22:07 59.2 °F 48.6 °F 30.1 in Calm   2 mph 68% 0 in 0 W/m2
22:12 58.8 °F 48.7 °F 30.1 in Calm     69% 0 in 0 W/m2
22:17 58.8 °F 48.2 °F 30.1 in Calm   1 mph 68% 0 in 0 W/m2
22:22 58.8 °F 49.1 °F 30.1 in Calm     70% 0 in 0 W/m2
22:27 58.6 °F 48.6 °F 30.1 in Calm     69% 0 in 0 W/m2
22:32 58.5 °F 48.4 °F 30.1 in Calm     69% 0 in 0 W/m2
22:37 58.3 °F 47.8 °F 30.1 in SE 0.9 mph 2 mph 68% 0 in 0 W/m2
22:42 58.3 °F 47.3 °F 30.2 in Calm   2 mph 67% 0 in 0 W/m2
22:47 58.5 °F 48 °F 30.2 in Calm   1 mph 68% 0 in 0 W/m2
22:52 58.5 °F 48.4 °F 30.2 in Calm     69% 0 in 0 W/m2
22:57 58.3 °F 48.2 °F 30.2 in Calm     69% 0 in 0 W/m2
23:02 58.1 °F 47.7 °F 30.2 in Calm   1 mph 68% 0 in 0 W/m2
23:07 57.9 °F 47.5 °F 30.2 in ESE 0.9 mph 1 mph 68% 0 in 0 W/m2
23:12 57.7 °F 47.7 °F 30.2 in ESE 0.9 mph 2 mph 69% 0 in 0 W/m2
23:17 57.7 °F 47.7 °F 30.2 in Calm     69% 0 in 0 W/m2
23:22 57.6 °F 47.8 °F 30.2 in Calm   2 mph 70% 0 in 0 W/m2
23:27 57.4 °F 48 °F 30.2 in Calm     71% 0 in 0 W/m2
23:32 57.4 °F 48 °F 30.2 in Calm     71% 0 in 0 W/m2
23:37 57 °F 47.7 °F 30.2 in Calm     71% 0 in 0 W/m2
23:42 56.8 °F 47.8 °F 30.2 in Calm     72% 0 in 0 W/m2
23:47 56.8 °F 47.8 °F 30.2 in Calm   1 mph 72% 0 in 0 W/m2
23:52 56.7 °F 48 °F 30.2 in ESE 0.9 mph 1 mph 73% 0 in 0 W/m2
23:57 56.5 °F 48 °F 30.2 in Calm   1 mph 73% 0 in 0 W/m2
Juneau County Weather
Compliments of Weather Underground - 2 mb